createdAt,value
2018-08-03T00:00:40.013Z,18.8
2018-08-03T00:05:40.424Z,18.6
2018-08-03T00:10:39.632Z,18.6
2018-08-03T00:15:39.699Z,18.4
2018-08-03T00:20:39.849Z,18.4
2018-08-03T00:25:40.249Z,18.3
2018-08-03T00:30:40.196Z,18.3
2018-08-03T00:35:40.101Z,18.2
2018-08-03T00:40:39.628Z,18.2
2018-08-03T00:45:39.749Z,18.1
2018-08-03T00:50:40.276Z,18.1
2018-08-03T00:55:39.680Z,17.9
2018-08-03T01:00:39.721Z,17.9
2018-08-03T01:05:40.167Z,17.8
2018-08-03T01:10:40.188Z,17.8
2018-08-03T01:15:39.463Z,17.7
2018-08-03T01:20:39.556Z,17.7
2018-08-03T01:25:40.019Z,17.6
2018-08-03T01:30:40.187Z,17.6
2018-08-03T01:35:40.441Z,17.4
2018-08-03T01:40:39.691Z,17.4
2018-08-03T01:45:39.965Z,17.3
2018-08-03T01:50:40.457Z,17.3
2018-08-03T01:55:39.791Z,17.2
2018-08-03T02:00:39.922Z,17.2
2018-08-03T02:05:39.819Z,17.1
2018-08-03T02:10:40.120Z,17.1
2018-08-03T02:15:40.267Z,17
2018-08-03T02:20:39.755Z,17
2018-08-03T02:25:40.044Z,16.9
2018-08-03T02:30:40.335Z,16.9
2018-08-03T02:35:39.775Z,16.8
2018-08-03T02:40:39.871Z,16.8
2018-08-03T02:45:40.306Z,16.7
2018-08-03T02:50:39.868Z,16.7
2018-08-03T02:55:40.071Z,16.6
2018-08-03T03:00:39.704Z,16.6
2018-08-03T03:05:40.372Z,16.5
2018-08-03T03:10:39.901Z,16.5
2018-08-03T03:15:40.021Z,16.4
2018-08-03T03:20:40.121Z,16.4
2018-08-03T03:25:40.359Z,16.3
2018-08-03T03:30:40.427Z,16.3
2018-08-03T03:35:39.754Z,16.3
2018-08-03T03:40:39.811Z,16.3
2018-08-03T03:45:39.980Z,16.2
2018-08-03T03:50:40.339Z,16.2
2018-08-03T03:55:40.331Z,16.2
2018-08-03T04:00:40.460Z,16.2
2018-08-03T04:05:40.020Z,16.1
2018-08-03T04:10:40.098Z,16.1
2018-08-03T04:15:40.354Z,16.1
2018-08-03T04:20:40.572Z,16.1
2018-08-03T04:25:39.917Z,16.1
2018-08-03T04:30:40.485Z,16.1
2018-08-03T04:35:39.932Z,16
2018-08-03T04:40:39.963Z,16
2018-08-03T04:45:40.103Z,16.1
2018-08-03T04:50:40.193Z,16.1
2018-08-03T04:55:40.621Z,16.1
2018-08-03T05:00:39.795Z,16.1
2018-08-03T05:05:40.636Z,16.2
2018-08-03T05:10:40.060Z,16.2
2018-08-03T05:15:40.163Z,16.4
2018-08-03T05:20:40.385Z,16.4
2018-08-03T05:25:40.340Z,16.6
2018-08-03T05:30:40.439Z,16.6
2018-08-03T05:35:40.555Z,16.7
2018-08-03T05:40:40.462Z,16.7
2018-08-03T05:45:40.296Z,17.1
2018-08-03T05:50:40.334Z,17.1
2018-08-03T05:55:40.272Z,17.5
2018-08-03T06:00:40.167Z,17.5
2018-08-03T06:05:39.985Z,18.1
2018-08-03T06:10:40.155Z,18.1
2018-08-03T06:15:40.504Z,18.7
2018-08-03T06:20:40.415Z,18.7
2018-08-03T06:25:40.448Z,19.4
2018-08-03T06:30:40.445Z,19.4
2018-08-03T06:35:40.651Z,20.4
2018-08-03T06:40:40.952Z,20.4
2018-08-03T06:45:39.893Z,21.2
2018-08-03T06:50:39.909Z,21.2
2018-08-03T06:55:39.859Z,22.2
2018-08-03T07:00:39.913Z,22.2
2018-08-03T07:05:40.305Z,23.1
2018-08-03T07:10:39.984Z,23.1
2018-08-03T07:15:39.974Z,24
2018-08-03T07:20:39.966Z,24
2018-08-03T07:25:40.582Z,24.9
2018-08-03T07:30:40.643Z,24.9
2018-08-03T07:35:40.035Z,25.9
2018-08-03T07:40:40.025Z,25.9
2018-08-03T07:45:40.051Z,26.8
2018-08-03T07:50:40.175Z,26.8
2018-08-03T07:55:40.062Z,27.4
2018-08-03T08:00:40.786Z,27.4
2018-08-03T08:05:40.750Z,27.8
2018-08-03T08:10:40.184Z,27.8
2018-08-03T08:15:40.128Z,28.3
2018-08-03T08:20:40.064Z,28.3
2018-08-03T08:25:40.108Z,28.6
2018-08-03T08:30:40.078Z,28.6
2018-08-03T08:35:40.197Z,29
2018-08-03T08:40:40.218Z,29
2018-08-03T08:45:40.227Z,29.1
2018-08-03T08:50:40.348Z,29.1
2018-08-03T08:55:40.351Z,29.4
2018-08-03T09:00:40.378Z,29.4
2018-08-03T09:05:40.467Z,29.6
2018-08-03T09:10:40.073Z,29.6
2018-08-03T09:15:40.097Z,30.1
2018-08-03T09:20:40.169Z,30.1
2018-08-03T09:25:40.713Z,30.4
2018-08-03T09:30:40.606Z,30.4
2018-08-03T09:35:40.776Z,30.9
2018-08-03T09:40:40.941Z,30.9
2018-08-03T09:45:40.807Z,31.3
2018-08-03T09:50:40.829Z,31.3
2018-08-03T09:55:40.914Z,31.5
2018-08-03T10:00:40.912Z,31.5
2018-08-03T10:05:40.191Z,31.6
2018-08-03T10:10:40.447Z,31.6
2018-08-03T10:15:40.575Z,31.6
2018-08-03T10:20:40.618Z,31.6
2018-08-03T10:25:40.595Z,31.8
2018-08-03T10:30:40.611Z,31.8
2018-08-03T10:35:40.626Z,31.8
2018-08-03T10:40:40.784Z,31.8
2018-08-03T10:45:40.822Z,31.8
2018-08-03T10:50:41.041Z,31.8
2018-08-03T10:55:40.240Z,32.1
2018-08-03T11:00:40.199Z,32.1
2018-08-03T11:05:40.422Z,32.1
2018-08-03T11:10:40.468Z,32.1
2018-08-03T11:15:40.712Z,32.4
2018-08-03T11:20:40.322Z,32.4
2018-08-03T11:25:40.441Z,32.9
2018-08-03T11:30:40.857Z,32.9
2018-08-03T11:35:40.837Z,33.1
2018-08-03T11:40:40.646Z,33.1
2018-08-03T11:45:40.523Z,33.6
2018-08-03T11:50:40.670Z,33.6
2018-08-03T11:55:40.682Z,33.1
2018-08-03T12:00:40.724Z,33.1
2018-08-03T12:05:40.885Z,33.6
2018-08-03T12:10:40.329Z,33.6
2018-08-03T12:15:40.319Z,34.2
2018-08-03T12:20:40.245Z,34.2
2018-08-03T12:25:40.220Z,33.7
2018-08-03T12:30:41.116Z,33.7
2018-08-03T12:35:41.002Z,33.9
2018-08-03T12:40:41.145Z,33.9
2018-08-03T12:45:40.660Z,34
2018-08-03T12:50:40.806Z,34
2018-08-03T12:55:40.890Z,34.1
2018-08-03T13:00:40.745Z,34.1
2018-08-03T13:05:41.102Z,33.5
2018-08-03T13:10:41.474Z,33.5
2018-08-03T13:15:40.749Z,33.6
2018-08-03T13:20:40.659Z,33.6
2018-08-03T13:25:40.649Z,34.2
2018-08-03T13:30:41.153Z,34.2
2018-08-03T13:35:40.439Z,34.7
2018-08-03T13:40:40.437Z,34.7
2018-08-03T13:45:40.439Z,33.8
2018-08-03T13:50:40.437Z,33.8
2018-08-03T13:55:40.453Z,33.5
2018-08-03T14:00:40.409Z,33.5
2018-08-03T14:05:40.522Z,33
2018-08-03T14:10:40.632Z,33
2018-08-03T14:15:41.163Z,32.9
2018-08-03T14:20:41.206Z,32.9
2018-08-03T14:25:41.175Z,32.6
2018-08-03T14:30:41.028Z,32.6
2018-08-03T14:35:41.122Z,32.8
2018-08-03T14:40:41.167Z,32.8
2018-08-03T14:45:41.295Z,32.9
2018-08-03T14:50:41.284Z,32.9
2018-08-03T14:55:41.337Z,32.9
2018-08-03T15:00:41.372Z,32.9
2018-08-03T15:05:40.618Z,32.8
2018-08-03T15:10:40.677Z,32.8
2018-08-03T15:15:40.418Z,32.8
2018-08-03T15:20:41.353Z,32.8
2018-08-03T15:25:40.724Z,32.6
2018-08-03T15:30:40.998Z,32.6
2018-08-03T15:35:41.265Z,32.4
2018-08-03T15:40:41.211Z,32.4
2018-08-03T15:45:41.153Z,32.4
2018-08-03T15:50:41.206Z,32.4
2018-08-03T15:55:41.109Z,32.4
2018-08-03T16:00:41.106Z,32.4
2018-08-03T16:05:41.149Z,32.5
2018-08-03T16:10:41.373Z,32.5
2018-08-03T16:15:40.796Z,32.4
2018-08-03T16:20:41.209Z,32.4
2018-08-03T16:25:41.394Z,32.5
2018-08-03T16:30:41.337Z,32.5
2018-08-03T16:35:40.553Z,32.4
2018-08-03T16:40:40.600Z,32.4
2018-08-03T16:45:40.596Z,32.2
2018-08-03T16:50:40.579Z,32.2
2018-08-03T16:55:40.566Z,31.9
2018-08-03T17:00:41.479Z,31.9
2018-08-03T17:05:40.610Z,31.7
2018-08-03T17:10:40.925Z,31.7
2018-08-03T17:15:40.569Z,31.3
2018-08-03T17:20:40.838Z,31.3
2018-08-03T17:25:40.838Z,31.1
2018-08-03T17:30:40.843Z,31.1
2018-08-03T17:35:41.122Z,30.8
2018-08-03T17:40:41.180Z,30.8
2018-08-03T17:45:41.310Z,30.6
2018-08-03T17:50:41.469Z,30.6
2018-08-03T17:55:41.580Z,30.3
2018-08-03T18:00:40.754Z,30.3
2018-08-03T18:05:40.898Z,30.2
2018-08-03T18:10:40.965Z,30.2
2018-08-03T18:15:41.465Z,29.9
2018-08-03T18:20:41.548Z,29.9
2018-08-03T18:25:41.476Z,29.6
2018-08-03T18:30:41.406Z,29.6
2018-08-03T18:35:41.580Z,29.3
2018-08-03T18:40:41.506Z,29.3
2018-08-03T18:45:41.504Z,28.9
2018-08-03T18:50:41.687Z,28.9
2018-08-03T18:55:40.714Z,28.4
2018-08-03T19:00:40.833Z,28.4
2018-08-03T19:05:41.703Z,28.1
2018-08-03T19:10:40.814Z,28.1
2018-08-03T19:15:41.400Z,27.7
2018-08-03T19:20:41.427Z,27.7
2018-08-03T19:25:41.369Z,27.3
2018-08-03T19:30:41.411Z,27.3
2018-08-03T19:35:41.485Z,26.9
2018-08-03T19:40:41.580Z,26.9
2018-08-03T19:45:41.608Z,26.6
2018-08-03T19:50:41.578Z,26.6
2018-08-03T19:55:40.887Z,26.2
2018-08-03T20:00:41.024Z,26.2
2018-08-03T20:05:41.350Z,25.8
2018-08-03T20:10:41.033Z,25.8
2018-08-03T20:15:40.967Z,25.5
2018-08-03T20:20:41.188Z,25.5
2018-08-03T20:25:41.159Z,25.2
2018-08-03T20:30:41.283Z,25.2
2018-08-03T20:35:41.685Z,24.8
2018-08-03T20:40:40.834Z,24.8
2018-08-03T20:45:40.832Z,24.5
2018-08-03T20:50:40.965Z,24.5
2018-08-03T20:55:41.238Z,24.2
2018-08-03T21:00:41.313Z,24.2
2018-08-03T21:05:41.687Z,23.9
2018-08-03T21:10:40.991Z,23.9
2018-08-03T21:15:41.079Z,23.7
2018-08-03T21:20:41.543Z,23.7
2018-08-03T21:25:41.664Z,23.4
2018-08-03T21:30:41.810Z,23.4
2018-08-03T21:35:41.259Z,23.1
2018-08-03T21:40:41.559Z,23.1
2018-08-03T21:45:41.543Z,22.9
2018-08-03T21:50:41.681Z,22.9
2018-08-03T21:55:41.215Z,22.7
2018-08-03T22:00:41.162Z,22.7
2018-08-03T22:05:41.455Z,22.5
2018-08-03T22:10:41.712Z,22.5
2018-08-03T22:15:41.727Z,22.3
2018-08-03T22:20:41.739Z,22.3
2018-08-03T22:25:41.843Z,22
2018-08-03T22:30:40.950Z,22
2018-08-03T22:35:41.173Z,21.8
2018-08-03T22:40:41.323Z,21.8
2018-08-03T22:45:41.421Z,21.7
2018-08-03T22:50:41.464Z,21.7
2018-08-03T22:55:41.591Z,21.5
2018-08-03T23:00:41.524Z,21.5
2018-08-03T23:05:41.123Z,21.3
2018-08-03T23:10:42.021Z,21.3
2018-08-03T23:15:41.219Z,21.1
2018-08-03T23:20:41.378Z,21.1
2018-08-03T23:25:41.428Z,20.9
2018-08-03T23:30:41.375Z,20.9
2018-08-03T23:35:41.624Z,20.8
2018-08-03T23:40:41.717Z,20.8
2018-08-03T23:45:41.720Z,20.7
2018-08-03T23:50:41.779Z,20.7
2018-08-03T23:55:41.088Z,20.7
